sensor_id;sensor_type;location;lat;lon;timestamp;temperature;humidity
13231;DHT22;6681;53.254;10.398;2022-08-23T00:01:38;20.00;99.90
13231;DHT22;6681;53.254;10.398;2022-08-23T00:04:11;20.00;99.90
13231;DHT22;6681;53.254;10.398;2022-08-23T00:06:38;19.90;99.90
13231;DHT22;6681;53.254;10.398;2022-08-23T00:09:04;19.90;99.90
13231;DHT22;6681;53.254;10.398;2022-08-23T00:11:41;19.90;99.90
13231;DHT22;6681;53.254;10.398;2022-08-23T00:14:16;19.80;99.90
13231;DHT22;6681;53.254;10.398;2022-08-23T00:16:43;19.80;99.90
13231;DHT22;6681;53.254;10.398;2022-08-23T00:19:12;19.80;99.90
13231;DHT22;6681;53.254;10.398;2022-08-23T00:21:39;19.90;99.90
13231;DHT22;6681;53.254;10.398;2022-08-23T00:24:06;19.80;99.90
13231;DHT22;6681;53.254;10.398;2022-08-23T00:27:09;19.80;99.90
13231;DHT22;6681;53.254;10.398;2022-08-23T00:29:43;19.70;99.90
13231;DHT22;6681;53.254;10.398;2022-08-23T00:32:14;19.70;99.90
13231;DHT22;6681;53.254;10.398;2022-08-23T00:34:40;19.70;99.90
13231;DHT22;6681;53.254;10.398;2022-08-23T00:37:07;19.70;99.90
13231;DHT22;6681;53.254;10.398;2022-08-23T00:39:34;19.60;99.90
13231;DHT22;6681;53.254;10.398;2022-08-23T00:42:14;19.60;99.90
13231;DHT22;6681;53.254;10.398;2022-08-23T00:45:02;19.60;99.90
13231;DHT22;6681;53.254;10.398;2022-08-23T00:47:47;19.50;99.90
13231;DHT22;6681;53.254;10.398;2022-08-23T00:50:29;19.50;99.90
13231;DHT22;6681;53.254;10.398;2022-08-23T00:53:02;19.40;99.90
13231;DHT22;6681;53.254;10.398;2022-08-23T00:55:29;19.50;99.90
13231;DHT22;6681;53.254;10.398;2022-08-23T00:57:56;19.50;99.90
13231;DHT22;6681;53.254;10.398;2022-08-23T01:00:22;19.50;99.90
13231;DHT22;6681;53.254;10.398;2022-08-23T01:02:49;19.40;99.90
13231;DHT22;6681;53.254;10.398;2022-08-23T01:05:16;19.40;99.90
13231;DHT22;6681;53.254;10.398;2022-08-23T01:07:51;19.40;99.90
13231;DHT22;6681;53.254;10.398;2022-08-23T01:12:55;19.40;99.90
13231;DHT22;6681;53.254;10.398;2022-08-23T01:15:27;19.40;99.90
13231;DHT22;6681;53.254;10.398;2022-08-23T01:18:06;19.40;99.90
13231;DHT22;6681;53.254;10.398;2022-08-23T01:21:02;19.40;99.90
13231;DHT22;6681;53.254;10.398;2022-08-23T01:23:39;19.30;99.90
13231;DHT22;6681;53.254;10.398;2022-08-23T01:26:06;19.30;99.90
13231;DHT22;6681;53.254;10.398;2022-08-23T01:28:32;19.40;99.90
13231;DHT22;6681;53.254;10.398;2022-08-23T01:30:58;19.40;99.90
13231;DHT22;6681;53.254;10.398;2022-08-23T01:33:24;19.40;99.90
13231;DHT22;6681;53.254;10.398;2022-08-23T01:35:54;19.50;99.90
13231;DHT22;6681;53.254;10.398;2022-08-23T01:38:22;19.40;99.90
13231;DHT22;6681;53.254;10.398;2022-08-23T01:40:47;19.40;99.90
13231;DHT22;6681;53.254;10.398;2022-08-23T01:43:14;19.40;99.90
13231;DHT22;6681;53.254;10.398;2022-08-23T01:45:40;19.40;99.90
13231;DHT22;6681;53.254;10.398;2022-08-23T01:48:06;19.30;99.90
13231;DHT22;6681;53.254;10.398;2022-08-23T01:50:32;19.30;99.90
13231;DHT22;6681;53.254;10.398;2022-08-23T01:52:58;19.30;99.90
13231;DHT22;6681;53.254;10.398;2022-08-23T01:55:24;19.40;99.90
13231;DHT22;6681;53.254;10.398;2022-08-23T01:57:53;19.40;99.90
13231;DHT22;6681;53.254;10.398;2022-08-23T02:03:04;19.30;99.90
13231;DHT22;6681;53.254;10.398;2022-08-23T02:05:31;19.30;99.90
13231;DHT22;6681;53.254;10.398;2022-08-23T02:07:56;19.20;99.90
13231;DHT22;6681;53.254;10.398;2022-08-23T02:10:42;19.20;99.90
13231;DHT22;6681;53.254;10.398;2022-08-23T02:13:08;19.20;99.90
13231;DHT22;6681;53.254;10.398;2022-08-23T02:15:33;19.20;99.90
13231;DHT22;6681;53.254;10.398;2022-08-23T02:17:59;19.10;99.90
13231;DHT22;6681;53.254;10.398;2022-08-23T02:20:25;19.00;99.90
13231;DHT22;6681;53.254;10.398;2022-08-23T02:22:50;18.90;99.90
13231;DHT22;6681;53.254;10.398;2022-08-23T02:25:16;18.90;99.90
13231;DHT22;6681;53.254;10.398;2022-08-23T02:27:42;18.80;99.90
13231;DHT22;6681;53.254;10.398;2022-08-23T02:30:07;18.70;99.90
13231;DHT22;6681;53.254;10.398;2022-08-23T02:32:33;18.70;99.90
13231;DHT22;6681;53.254;10.398;2022-08-23T02:34:59;18.70;99.90
13231;DHT22;6681;53.254;10.398;2022-08-23T02:37:24;18.70;99.90
13231;DHT22;6681;53.254;10.398;2022-08-23T02:39:50;18.70;99.90
13231;DHT22;6681;53.254;10.398;2022-08-23T02:42:16;18.70;99.90
13231;DHT22;6681;53.254;10.398;2022-08-23T02:44:42;18.60;99.90
13231;DHT22;6681;53.254;10.398;2022-08-23T02:47:07;18.50;99.90
13231;DHT22;6681;53.254;10.398;2022-08-23T02:49:33;18.60;99.90
13231;DHT22;6681;53.254;10.398;2022-08-23T02:51:59;18.50;99.90
13231;DHT22;6681;53.254;10.398;2022-08-23T02:54:24;18.50;99.90
13231;DHT22;6681;53.254;10.398;2022-08-23T02:56:50;18.50;99.90
13231;DHT22;6681;53.254;10.398;2022-08-23T02:59:17;18.50;99.90
13231;DHT22;6681;53.254;10.398;2022-08-23T03:01:43;18.50;99.90
13231;DHT22;6681;53.254;10.398;2022-08-23T03:04:10;18.40;99.90
13231;DHT22;6681;53.254;10.398;2022-08-23T03:06:36;18.70;99.90
13231;DHT22;6681;53.254;10.398;2022-08-23T03:09:04;18.40;99.90
13231;DHT22;6681;53.254;10.398;2022-08-23T03:11:30;18.40;99.90
13231;DHT22;6681;53.254;10.398;2022-08-23T03:13:56;18.50;99.90
13231;DHT22;6681;53.254;10.398;2022-08-23T03:16:22;18.60;99.90
13231;DHT22;6681;53.254;10.398;2022-08-23T03:18:49;18.70;99.90
13231;DHT22;6681;53.254;10.398;2022-08-23T03:21:15;18.70;99.90
13231;DHT22;6681;53.254;10.398;2022-08-23T03:23:41;18.70;99.90
13231;DHT22;6681;53.254;10.398;2022-08-23T03:26:09;18.60;99.90
13231;DHT22;6681;53.254;10.398;2022-08-23T03:28:36;18.60;99.90
13231;DHT22;6681;53.254;10.398;2022-08-23T03:31:02;18.60;99.90
13231;DHT22;6681;53.254;10.398;2022-08-23T03:33:28;18.60;99.90
13231;DHT22;6681;53.254;10.398;2022-08-23T03:35:58;18.60;99.90
13231;DHT22;6681;53.254;10.398;2022-08-23T03:38:24;18.50;99.90
13231;DHT22;6681;53.254;10.398;2022-08-23T03:40:50;18.50;99.90
13231;DHT22;6681;53.254;10.398;2022-08-23T03:43:17;18.50;99.90
13231;DHT22;6681;53.254;10.398;2022-08-23T03:45:43;18.50;99.90
13231;DHT22;6681;53.254;10.398;2022-08-23T03:48:09;18.50;99.90
13231;DHT22;6681;53.254;10.398;2022-08-23T03:50:34;18.50;99.90
13231;DHT22;6681;53.254;10.398;2022-08-23T03:53:00;18.40;99.90
13231;DHT22;6681;53.254;10.398;2022-08-23T03:55:26;18.40;99.90
13231;DHT22;6681;53.254;10.398;2022-08-23T03:57:52;18.40;99.90
13231;DHT22;6681;53.254;10.398;2022-08-23T04:00:19;18.50;99.90
13231;DHT22;6681;53.254;10.398;2022-08-23T04:02:45;18.40;99.90
13231;DHT22;6681;53.254;10.398;2022-08-23T04:05:10;18.40;99.90
13231;DHT22;6681;53.254;10.398;2022-08-23T04:07:37;18.30;99.90
13231;DHT22;6681;53.254;10.398;2022-08-23T04:10:04;18.20;99.90
13231;DHT22;6681;53.254;10.398;2022-08-23T04:12:30;18.10;99.90
13231;DHT22;6681;53.254;10.398;2022-08-23T04:14:55;18.10;99.90
13231;DHT22;6681;53.254;10.398;2022-08-23T04:17:21;18.20;99.90
13231;DHT22;6681;53.254;10.398;2022-08-23T04:19:47;18.10;99.90
13231;DHT22;6681;53.254;10.398;2022-08-23T04:22:15;18.20;99.90
13231;DHT22;6681;53.254;10.398;2022-08-23T04:24:41;18.20;99.90
13231;DHT22;6681;53.254;10.398;2022-08-23T04:27:07;18.20;99.90
13231;DHT22;6681;53.254;10.398;2022-08-23T04:29:33;18.20;99.90
13231;DHT22;6681;53.254;10.398;2022-08-23T04:31:59;18.20;99.90
13231;DHT22;6681;53.254;10.398;2022-08-23T04:34:24;18.10;99.90
13231;DHT22;6681;53.254;10.398;2022-08-23T04:36:52;18.10;99.90
13231;DHT22;6681;53.254;10.398;2022-08-23T04:39:18;18.00;99.90
13231;DHT22;6681;53.254;10.398;2022-08-23T04:41:43;18.00;99.90
13231;DHT22;6681;53.254;10.398;2022-08-23T04:44:28;18.00;99.90
13231;DHT22;6681;53.254;10.398;2022-08-23T04:46:53;18.00;99.90
13231;DHT22;6681;53.254;10.398;2022-08-23T04:49:19;18.00;99.90
13231;DHT22;6681;53.254;10.398;2022-08-23T04:51:47;17.90;99.90
13231;DHT22;6681;53.254;10.398;2022-08-23T04:54:12;17.90;99.90
13231;DHT22;6681;53.254;10.398;2022-08-23T04:56:38;18.00;99.90
13231;DHT22;6681;53.254;10.398;2022-08-23T04:59:04;18.00;99.90
13231;DHT22;6681;53.254;10.398;2022-08-23T05:01:30;18.00;99.90
13231;DHT22;6681;53.254;10.398;2022-08-23T05:03:56;18.00;99.90
13231;DHT22;6681;53.254;10.398;2022-08-23T05:06:22;18.00;99.90
13231;DHT22;6681;53.254;10.398;2022-08-23T05:08:48;17.90;99.90
13231;DHT22;6681;53.254;10.398;2022-08-23T05:11:14;18.10;99.90
13231;DHT22;6681;53.254;10.398;2022-08-23T05:13:40;17.90;99.90
13231;DHT22;6681;53.254;10.398;2022-08-23T05:16:06;17.90;99.90
13231;DHT22;6681;53.254;10.398;2022-08-23T05:18:32;17.90;99.90
13231;DHT22;6681;53.254;10.398;2022-08-23T05:20:58;18.00;99.90
13231;DHT22;6681;53.254;10.398;2022-08-23T05:23:24;17.90;99.90
13231;DHT22;6681;53.254;10.398;2022-08-23T05:25:53;17.90;99.90
13231;DHT22;6681;53.254;10.398;2022-08-23T05:28:28;17.90;99.90
13231;DHT22;6681;53.254;10.398;2022-08-23T05:30:59;17.90;99.90
13231;DHT22;6681;53.254;10.398;2022-08-23T05:33:27;17.90;99.90
13231;DHT22;6681;53.254;10.398;2022-08-23T05:35:54;17.90;99.90
13231;DHT22;6681;53.254;10.398;2022-08-23T05:38:20;17.90;99.90
13231;DHT22;6681;53.254;10.398;2022-08-23T05:40:51;17.90;99.90
13231;DHT22;6681;53.254;10.398;2022-08-23T05:43:17;17.90;99.90
13231;DHT22;6681;53.254;10.398;2022-08-23T05:45:44;17.90;99.90
13231;DHT22;6681;53.254;10.398;2022-08-23T05:48:10;17.90;99.90
13231;DHT22;6681;53.254;10.398;2022-08-23T05:50:36;18.00;99.90
13231;DHT22;6681;53.254;10.398;2022-08-23T05:53:02;18.10;99.90
13231;DHT22;6681;53.254;10.398;2022-08-23T05:55:28;18.10;99.90
13231;DHT22;6681;53.254;10.398;2022-08-23T05:57:53;18.10;99.90
13231;DHT22;6681;53.254;10.398;2022-08-23T06:00:20;18.10;99.90
13231;DHT22;6681;53.254;10.398;2022-08-23T06:02:46;18.20;99.90
13231;DHT22;6681;53.254;10.398;2022-08-23T06:05:14;18.20;99.90
13231;DHT22;6681;53.254;10.398;2022-08-23T06:07:39;18.30;99.90
13231;DHT22;6681;53.254;10.398;2022-08-23T06:10:07;18.30;99.90
13231;DHT22;6681;53.254;10.398;2022-08-23T06:12:33;18.30;99.90
13231;DHT22;6681;53.254;10.398;2022-08-23T06:14:59;18.30;99.90
13231;DHT22;6681;53.254;10.398;2022-08-23T06:17:26;18.30;99.90
13231;DHT22;6681;53.254;10.398;2022-08-23T06:19:51;18.40;99.90
13231;DHT22;6681;53.254;10.398;2022-08-23T06:22:17;18.50;99.90
13231;DHT22;6681;53.254;10.398;2022-08-23T06:24:43;18.50;99.90
13231;DHT22;6681;53.254;10.398;2022-08-23T06:27:10;18.60;99.90
13231;DHT22;6681;53.254;10.398;2022-08-23T06:29:36;18.60;99.90
13231;DHT22;6681;53.254;10.398;2022-08-23T06:32:03;18.60;99.90
13231;DHT22;6681;53.254;10.398;2022-08-23T06:34:36;18.70;99.90
13231;DHT22;6681;53.254;10.398;2022-08-23T06:37:13;18.70;99.90
13231;DHT22;6681;53.254;10.398;2022-08-23T06:39:39;18.80;99.90
13231;DHT22;6681;53.254;10.398;2022-08-23T06:42:11;18.80;99.90
13231;DHT22;6681;53.254;10.398;2022-08-23T06:44:37;18.90;99.90
13231;DHT22;6681;53.254;10.398;2022-08-23T06:47:05;18.90;99.90
13231;DHT22;6681;53.254;10.398;2022-08-23T06:49:31;19.00;99.90
13231;DHT22;6681;53.254;10.398;2022-08-23T06:51:59;19.00;99.90
13231;DHT22;6681;53.254;10.398;2022-08-23T06:54:28;19.40;99.90
13231;DHT22;6681;53.254;10.398;2022-08-23T06:56:55;19.20;99.90
13231;DHT22;6681;53.254;10.398;2022-08-23T06:59:21;19.30;99.90
13231;DHT22;6681;53.254;10.398;2022-08-23T07:01:48;19.40;99.90
13231;DHT22;6681;53.254;10.398;2022-08-23T07:04:27;19.40;99.90
13231;DHT22;6681;53.254;10.398;2022-08-23T07:06:53;19.40;99.90
13231;DHT22;6681;53.254;10.398;2022-08-23T07:09:19;19.50;99.90
13231;DHT22;6681;53.254;10.398;2022-08-23T07:11:45;19.60;99.90
13231;DHT22;6681;53.254;10.398;2022-08-23T07:14:13;19.70;99.90
13231;DHT22;6681;53.254;10.398;2022-08-23T07:17:06;19.80;99.90
13231;DHT22;6681;53.254;10.398;2022-08-23T07:19:34;19.90;99.90
13231;DHT22;6681;53.254;10.398;2022-08-23T07:22:02;19.90;99.90
13231;DHT22;6681;53.254;10.398;2022-08-23T07:24:29;20.00;99.90
13231;DHT22;6681;53.254;10.398;2022-08-23T07:26:55;20.10;99.90
13231;DHT22;6681;53.254;10.398;2022-08-23T07:29:22;20.20;99.90
13231;DHT22;6681;53.254;10.398;2022-08-23T07:31:54;20.20;99.90
13231;DHT22;6681;53.254;10.398;2022-08-23T07:34:21;20.30;99.90
13231;DHT22;6681;53.254;10.398;2022-08-23T07:36:48;20.50;99.90
13231;DHT22;6681;53.254;10.398;2022-08-23T07:39:15;20.50;99.90
13231;DHT22;6681;53.254;10.398;2022-08-23T07:41:41;20.60;99.90
13231;DHT22;6681;53.254;10.398;2022-08-23T07:44:08;20.70;99.90
13231;DHT22;6681;53.254;10.398;2022-08-23T07:46:35;20.80;99.90
13231;DHT22;6681;53.254;10.398;2022-08-23T07:49:02;20.80;99.90
13231;DHT22;6681;53.254;10.398;2022-08-23T07:51:30;18.80;99.90
13231;DHT22;6681;53.254;10.398;2022-08-23T07:53:57;21.00;99.90
13231;DHT22;6681;53.254;10.398;2022-08-23T07:56:23;21.00;99.90
13231;DHT22;6681;53.254;10.398;2022-08-23T07:58:48;21.20;99.90
13231;DHT22;6681;53.254;10.398;2022-08-23T08:01:21;21.20;99.90
13231;DHT22;6681;53.254;10.398;2022-08-23T08:03:49;21.30;99.90
13231;DHT22;6681;53.254;10.398;2022-08-23T08:06:23;21.40;99.90
13231;DHT22;6681;53.254;10.398;2022-08-23T08:08:49;21.50;99.90
13231;DHT22;6681;53.254;10.398;2022-08-23T08:11:17;21.60;99.90
13231;DHT22;6681;53.254;10.398;2022-08-23T08:13:45;21.60;99.90
13231;DHT22;6681;53.254;10.398;2022-08-23T08:16:24;21.70;99.90
13231;DHT22;6681;53.254;10.398;2022-08-23T08:18:53;21.90;99.90
13231;DHT22;6681;53.254;10.398;2022-08-23T08:21:18;22.00;99.90
13231;DHT22;6681;53.254;10.398;2022-08-23T08:23:44;22.10;99.90
13231;DHT22;6681;53.254;10.398;2022-08-23T08:26:10;22.20;99.90
13231;DHT22;6681;53.254;10.398;2022-08-23T08:28:36;22.20;99.90
13231;DHT22;6681;53.254;10.398;2022-08-23T08:31:03;22.20;99.90
13231;DHT22;6681;53.254;10.398;2022-08-23T08:33:30;22.30;99.90
13231;DHT22;6681;53.254;10.398;2022-08-23T08:35:56;22.40;99.90
13231;DHT22;6681;53.254;10.398;2022-08-23T08:38:22;22.50;99.90
13231;DHT22;6681;53.254;10.398;2022-08-23T08:40:52;22.60;99.90
13231;DHT22;6681;53.254;10.398;2022-08-23T08:43:33;22.70;99.90
13231;DHT22;6681;53.254;10.398;2022-08-23T08:46:13;22.80;99.90
13231;DHT22;6681;53.254;10.398;2022-08-23T08:48:47;23.00;99.90
13231;DHT22;6681;53.254;10.398;2022-08-23T08:51:36;23.00;99.90
13231;DHT22;6681;53.254;10.398;2022-08-23T08:54:09;23.00;99.90
13231;DHT22;6681;53.254;10.398;2022-08-23T08:56:37;23.10;99.90
13231;DHT22;6681;53.254;10.398;2022-08-23T08:59:11;23.00;99.90
13231;DHT22;6681;53.254;10.398;2022-08-23T09:01:40;23.10;99.90
13231;DHT22;6681;53.254;10.398;2022-08-23T09:04:06;23.20;99.90
13231;DHT22;6681;53.254;10.398;2022-08-23T09:12:13;23.50;99.90
13231;DHT22;6681;53.254;10.398;2022-08-23T09:17:38;23.70;99.90
13231;DHT22;6681;53.254;10.398;2022-08-23T09:20:05;23.80;99.90
13231;DHT22;6681;53.254;10.398;2022-08-23T09:22:47;23.80;99.90
13231;DHT22;6681;53.254;10.398;2022-08-23T09:25:15;23.80;99.90
13231;DHT22;6681;53.254;10.398;2022-08-23T09:27:42;23.80;99.90
13231;DHT22;6681;53.254;10.398;2022-08-23T09:30:13;23.90;99.90
13231;DHT22;6681;53.254;10.398;2022-08-23T09:32:42;24.00;99.90
13231;DHT22;6681;53.254;10.398;2022-08-23T09:35:13;24.10;99.90
13231;DHT22;6681;53.254;10.398;2022-08-23T09:38:03;24.10;99.90
13231;DHT22;6681;53.254;10.398;2022-08-23T09:40:34;24.10;99.90
13231;DHT22;6681;53.254;10.398;2022-08-23T09:43:19;24.20;99.90
13231;DHT22;6681;53.254;10.398;2022-08-23T09:51:47;24.60;99.90
13231;DHT22;6681;53.254;10.398;2022-08-23T09:53:50;24.70;99.90
13231;DHT22;6681;53.254;10.398;2022-08-23T09:56:22;24.80;99.90
13231;DHT22;6681;53.254;10.398;2022-08-23T09:58:49;24.80;99.90
13231;DHT22;6681;53.254;10.398;2022-08-23T10:01:26;24.90;99.90
13231;DHT22;6681;53.254;10.398;2022-08-23T10:04:14;25.00;99.90
13231;DHT22;6681;53.254;10.398;2022-08-23T10:06:41;25.00;99.90
13231;DHT22;6681;53.254;10.398;2022-08-23T10:09:14;25.10;99.90
13231;DHT22;6681;53.254;10.398;2022-08-23T10:11:45;25.10;99.90
13231;DHT22;6681;53.254;10.398;2022-08-23T10:14:17;25.20;99.90
13231;DHT22;6681;53.254;10.398;2022-08-23T10:19:33;27.80;99.90
13231;DHT22;6681;53.254;10.398;2022-08-23T10:22:18;25.30;99.90
13231;DHT22;6681;53.254;10.398;2022-08-23T10:24:53;25.40;99.90
13231;DHT22;6681;53.254;10.398;2022-08-23T10:30:56;25.40;99.90
13231;DHT22;6681;53.254;10.398;2022-08-23T10:33:31;25.50;99.90
13231;DHT22;6681;53.254;10.398;2022-08-23T10:36:11;25.60;99.90
13231;DHT22;6681;53.254;10.398;2022-08-23T10:38:49;25.70;99.90
13231;DHT22;6681;53.254;10.398;2022-08-23T10:49:41;25.90;97.20
13231;DHT22;6681;53.254;10.398;2022-08-23T10:52:11;25.90;97.70
13231;DHT22;6681;53.254;10.398;2022-08-23T10:54:44;25.90;99.90
13231;DHT22;6681;53.254;10.398;2022-08-23T10:57:16;26.10;98.40
13231;DHT22;6681;53.254;10.398;2022-08-23T10:59:44;26.20;98.90
13231;DHT22;6681;53.254;10.398;2022-08-23T11:13:02;26.70;97.30
13231;DHT22;6681;53.254;10.398;2022-08-23T11:18:35;26.80;95.70
13231;DHT22;6681;53.254;10.398;2022-08-23T11:23:48;26.80;96.00
13231;DHT22;6681;53.254;10.398;2022-08-23T11:32:20;26.90;93.90
13231;DHT22;6681;53.254;10.398;2022-08-23T11:35:06;27.00;95.30
13231;DHT22;6681;53.254;10.398;2022-08-23T11:38:00;27.10;94.20
13231;DHT22;6681;53.254;10.398;2022-08-23T11:43:09;27.30;95.70
13231;DHT22;6681;53.254;10.398;2022-08-23T12:01:33;27.60;90.60
13231;DHT22;6681;53.254;10.398;2022-08-23T12:04:09;27.60;90.50
13231;DHT22;6681;53.254;10.398;2022-08-23T12:09:48;27.80;91.50
13231;DHT22;6681;53.254;10.398;2022-08-23T12:20:13;28.30;90.70
13231;DHT22;6681;53.254;10.398;2022-08-23T12:23:21;28.30;90.60
13231;DHT22;6681;53.254;10.398;2022-08-23T12:26:02;28.40;91.40
13231;DHT22;6681;53.254;10.398;2022-08-23T12:28:48;28.50;91.70
13231;DHT22;6681;53.254;10.398;2022-08-23T12:31:36;28.60;90.70
13231;DHT22;6681;53.254;10.398;2022-08-23T12:36:47;29.00;91.00
13231;DHT22;6681;53.254;10.398;2022-08-23T12:39:31;29.00;89.70
13231;DHT22;6681;53.254;10.398;2022-08-23T12:42:16;28.80;88.90
13231;DHT22;6681;53.254;10.398;2022-08-23T12:44:46;28.80;88.40
13231;DHT22;6681;53.254;10.398;2022-08-23T12:47:22;29.00;90.60
13231;DHT22;6681;53.254;10.398;2022-08-23T12:52:26;29.30;90.00
13231;DHT22;6681;53.254;10.398;2022-08-23T12:54:52;29.20;85.80
13231;DHT22;6681;53.254;10.398;2022-08-23T12:57:30;29.10;86.70
13231;DHT22;6681;53.254;10.398;2022-08-23T13:02:34;29.10;88.00
13231;DHT22;6681;53.254;10.398;2022-08-23T13:05:29;29.30;85.80
13231;DHT22;6681;53.254;10.398;2022-08-23T13:07:57;29.30;83.60
13231;DHT22;6681;53.254;10.398;2022-08-23T13:10:24;29.10;83.20
13231;DHT22;6681;53.254;10.398;2022-08-23T13:12:51;29.00;82.90
13231;DHT22;6681;53.254;10.398;2022-08-23T13:23:40;29.70;85.20
13231;DHT22;6681;53.254;10.398;2022-08-23T13:29:11;30.20;83.60
13231;DHT22;6681;53.254;10.398;2022-08-23T13:37:47;30.90;87.10
13231;DHT22;6681;53.254;10.398;2022-08-23T13:39:50;31.10;86.00
13231;DHT22;6681;53.254;10.398;2022-08-23T13:42:41;31.00;80.80
13231;DHT22;6681;53.254;10.398;2022-08-23T13:45:46;30.90;78.40
13231;DHT22;6681;53.254;10.398;2022-08-23T13:48:22;30.70;78.80
13231;DHT22;6681;53.254;10.398;2022-08-23T13:50:49;30.40;78.00
13231;DHT22;6681;53.254;10.398;2022-08-23T13:53:16;30.40;83.70
13231;DHT22;6681;53.254;10.398;2022-08-23T13:55:53;30.40;84.70
13231;DHT22;6681;53.254;10.398;2022-08-23T13:58:30;30.70;79.60
13231;DHT22;6681;53.254;10.398;2022-08-23T14:00:58;30.60;83.30
13231;DHT22;6681;53.254;10.398;2022-08-23T14:03:25;30.70;79.30
13231;DHT22;6681;53.254;10.398;2022-08-23T14:05:52;31.10;80.30
13231;DHT22;6681;53.254;10.398;2022-08-23T14:08:18;31.20;77.00
13231;DHT22;6681;53.254;10.398;2022-08-23T14:10:44;31.20;79.40
13231;DHT22;6681;53.254;10.398;2022-08-23T14:13:11;31.50;79.60
13231;DHT22;6681;53.254;10.398;2022-08-23T14:15:40;31.60;79.00
13231;DHT22;6681;53.254;10.398;2022-08-23T14:18:07;31.50;75.00
13231;DHT22;6681;53.254;10.398;2022-08-23T14:20:33;31.50;77.90
13231;DHT22;6681;53.254;10.398;2022-08-23T14:22:59;28.80;75.30
13231;DHT22;6681;53.254;10.398;2022-08-23T14:25:25;31.30;78.30
13231;DHT22;6681;53.254;10.398;2022-08-23T14:27:50;31.40;75.40
13231;DHT22;6681;53.254;10.398;2022-08-23T14:30:28;31.50;75.20
13231;DHT22;6681;53.254;10.398;2022-08-23T14:32:54;31.50;75.10
13231;DHT22;6681;53.254;10.398;2022-08-23T14:35:20;31.50;74.80
13231;DHT22;6681;53.254;10.398;2022-08-23T14:37:46;31.30;71.80
13231;DHT22;6681;53.254;10.398;2022-08-23T14:40:12;31.20;74.90
13231;DHT22;6681;53.254;10.398;2022-08-23T14:42:38;31.30;73.00
13231;DHT22;6681;53.254;10.398;2022-08-23T14:45:04;31.30;74.00
13231;DHT22;6681;53.254;10.398;2022-08-23T14:47:30;31.50;73.00
13231;DHT22;6681;53.254;10.398;2022-08-23T14:49:56;31.80;71.90
13231;DHT22;6681;53.254;10.398;2022-08-23T14:52:22;31.70;73.30
13231;DHT22;6681;53.254;10.398;2022-08-23T14:54:48;31.80;73.00
13231;DHT22;6681;53.254;10.398;2022-08-23T14:57:13;32.00;74.40
13231;DHT22;6681;53.254;10.398;2022-08-23T14:59:39;31.70;68.50
13231;DHT22;6681;53.254;10.398;2022-08-23T15:02:07;31.50;72.20
13231;DHT22;6681;53.254;10.398;2022-08-23T15:04:35;31.40;74.40
13231;DHT22;6681;53.254;10.398;2022-08-23T15:07:02;31.50;77.40
13231;DHT22;6681;53.254;10.398;2022-08-23T15:09:29;31.70;74.80
13231;DHT22;6681;53.254;10.398;2022-08-23T15:11:54;32.10;76.10
13231;DHT22;6681;53.254;10.398;2022-08-23T15:14:20;31.80;70.10
13231;DHT22;6681;53.254;10.398;2022-08-23T15:16:46;31.70;72.90
13231;DHT22;6681;53.254;10.398;2022-08-23T15:19:12;32.00;71.00
13231;DHT22;6681;53.254;10.398;2022-08-23T15:21:38;31.50;72.30
13231;DHT22;6681;53.254;10.398;2022-08-23T15:24:04;31.70;74.10
13231;DHT22;6681;53.254;10.398;2022-08-23T15:26:30;31.50;74.50
13231;DHT22;6681;53.254;10.398;2022-08-23T15:28:57;31.20;75.30
13231;DHT22;6681;53.254;10.398;2022-08-23T15:31:23;31.40;75.90
13231;DHT22;6681;53.254;10.398;2022-08-23T15:33:49;31.70;77.00
13231;DHT22;6681;53.254;10.398;2022-08-23T15:36:16;31.50;72.30
13231;DHT22;6681;53.254;10.398;2022-08-23T15:38:43;31.80;74.50
13231;DHT22;6681;53.254;10.398;2022-08-23T15:41:09;31.40;72.80
13231;DHT22;6681;53.254;10.398;2022-08-23T15:43:34;31.20;72.10
13231;DHT22;6681;53.254;10.398;2022-08-23T15:46:09;31.10;72.80
13231;DHT22;6681;53.254;10.398;2022-08-23T15:48:45;31.00;74.80
13231;DHT22;6681;53.254;10.398;2022-08-23T15:51:14;31.10;74.30
13231;DHT22;6681;53.254;10.398;2022-08-23T15:53:40;30.90;72.90
13231;DHT22;6681;53.254;10.398;2022-08-23T15:56:12;30.50;74.50
13231;DHT22;6681;53.254;10.398;2022-08-23T15:58:40;30.50;76.10
13231;DHT22;6681;53.254;10.398;2022-08-23T16:01:06;30.40;78.30
13231;DHT22;6681;53.254;10.398;2022-08-23T16:03:34;30.40;77.70
13231;DHT22;6681;53.254;10.398;2022-08-23T16:06:01;30.40;78.00
13231;DHT22;6681;53.254;10.398;2022-08-23T16:08:32;30.50;77.10
13231;DHT22;6681;53.254;10.398;2022-08-23T16:10:59;30.40;76.00
13231;DHT22;6681;53.254;10.398;2022-08-23T16:13:26;30.30;77.80
13231;DHT22;6681;53.254;10.398;2022-08-23T16:15:52;30.20;77.10
13231;DHT22;6681;53.254;10.398;2022-08-23T16:18:18;30.20;75.90
13231;DHT22;6681;53.254;10.398;2022-08-23T16:20:44;30.30;76.00
13231;DHT22;6681;53.254;10.398;2022-08-23T16:23:10;30.20;77.40
13231;DHT22;6681;53.254;10.398;2022-08-23T16:25:36;30.10;76.90
13231;DHT22;6681;53.254;10.398;2022-08-23T16:28:03;30.00;76.70
13231;DHT22;6681;53.254;10.398;2022-08-23T16:30:29;29.90;79.10
13231;DHT22;6681;53.254;10.398;2022-08-23T16:32:56;29.80;77.70
13231;DHT22;6681;53.254;10.398;2022-08-23T16:35:22;29.80;78.70
13231;DHT22;6681;53.254;10.398;2022-08-23T16:37:48;29.60;80.30
13231;DHT22;6681;53.254;10.398;2022-08-23T16:40:14;29.50;77.80
13231;DHT22;6681;53.254;10.398;2022-08-23T16:42:40;29.40;78.50
13231;DHT22;6681;53.254;10.398;2022-08-23T16:45:06;29.40;80.80
13231;DHT22;6681;53.254;10.398;2022-08-23T16:47:36;29.20;78.90
13231;DHT22;6681;53.254;10.398;2022-08-23T16:50:03;29.20;79.00
13231;DHT22;6681;53.254;10.398;2022-08-23T16:52:29;29.10;79.00
13231;DHT22;6681;53.254;10.398;2022-08-23T16:54:54;28.90;78.00
13231;DHT22;6681;53.254;10.398;2022-08-23T16:57:20;28.90;81.20
13231;DHT22;6681;53.254;10.398;2022-08-23T16:59:46;28.90;79.00
13231;DHT22;6681;53.254;10.398;2022-08-23T17:02:33;28.80;78.70
13231;DHT22;6681;53.254;10.398;2022-08-23T17:04:59;28.70;78.30
13231;DHT22;6681;53.254;10.398;2022-08-23T17:07:25;28.70;79.40
13231;DHT22;6681;53.254;10.398;2022-08-23T17:09:51;28.60;78.70
13231;DHT22;6681;53.254;10.398;2022-08-23T17:12:17;28.60;83.00
13231;DHT22;6681;53.254;10.398;2022-08-23T17:14:44;28.50;81.10
13231;DHT22;6681;53.254;10.398;2022-08-23T17:17:11;28.30;80.40
13231;DHT22;6681;53.254;10.398;2022-08-23T17:19:37;28.20;77.90
13231;DHT22;6681;53.254;10.398;2022-08-23T17:22:03;28.20;81.60
13231;DHT22;6681;53.254;10.398;2022-08-23T17:24:29;28.10;81.20
13231;DHT22;6681;53.254;10.398;2022-08-23T17:26:54;28.10;80.20
13231;DHT22;6681;53.254;10.398;2022-08-23T17:29:20;28.00;80.10
13231;DHT22;6681;53.254;10.398;2022-08-23T17:31:46;28.00;79.80
13231;DHT22;6681;53.254;10.398;2022-08-23T17:34:11;28.00;80.80